Nearby METAR Reports

 

EGKB - Biggin Hill, United Kingdom
Distance from station: S 5mi, 8km
Updated: 31/10/2014 20:20
NOT Current
Clear
Clear
 Wind from S
Wind: S 15 mph , 24 km/h
Temperature: 16°C
Dew Point: 11°C
Humidity: 72%
Barometer: 1016 hPa
Summary: Clear
Visibility: greater than 7 miles , 10 km
2014/10/31 20:20 EGKB 312020Z 17013KT CAVOK 16/11 Q1016
EGLC - London City Airp, United Kingdom
Distance from station: NNE 8mi, 13km
Updated: 01/11/2014 08:20
Few Clouds
Few Clouds
 Wind from WSW
Wind: WSW 9 mph , 15 km/h
Temperature: 17°C
Dew Point: 13°C
Humidity: 77%
Barometer: 1016 hPa
Clouds: Few Clouds
Visibility: 6 miles , 10 km
Cloud details: Few Clouds 549 m
2014/11/01 08:20 EGLC 010820Z 24008KT 9999 FEW018 17/13 Q1016
 
EGKK - London/Gatwick A, United Kingdom
Distance from station: SSW 19mi, 31km
Updated: 01/11/2014 08:20
Few Clouds
Few Clouds
 Wind from SW
Wind: SW 7 mph , 11 km/h
Temperature: 15°C
Dew Point: 13°C
Humidity: 88%
Barometer: 1016 hPa
Clouds: Few Clouds
Visibility: 6 miles , 10 km
Cloud details: Few Clouds 488 m
2014/11/01 08:20 EGKK 010820Z 22006KT 9999 FEW016 15/13 Q1016
EGLL - London/Heathrow, United Kingdom
Distance from station: WNW 21mi, 33km
Updated: 01/11/2014 08:20
Light rain, Partly cloudy
Light rain, Partly cloudy
 Wind from W
Wind: W 14 mph , 22 km/h
Temperature: 14°C
Dew Point: 12°C
Humidity: 88%
Barometer: 1016 hPa
Summary: Light rain
Clouds: Partly cloudy
Visibility: 6 miles , 10 km
Cloud details: Few Clouds 427 m
Partly cloudy 610 m
2014/11/01 08:20 EGLL 010820Z 27012KT 9999 -RA FEW014 SCT020 14/12 Q1016